Monatstabelle

Bitte in den Auwahlmenüs den gewünschte Zeiraum wählen und die Schaltfläche "Anfrage absenden" betätigen. Beginn der Aufzeichnung ist 2007 - Dezember. Vor diesem Zeitraum sind keine Daten verfügbar.

2018 - Jänner

 

Datum Temperatur (°C) Luftdruck (hPa) Luftfeuchte (%) Regen
(l/m²)
Wind (km/h)
avg: min: max: avg: min: max: avg: min: max: avg: max:
01.01.2018 5,2 -0,8 8,5 1007,0 1005,7 1009,8 75 62 90 0,0 3,7 17,5
02.01.2018 5,4 2,8 9,1 1009,8 1004,9 1012,5 70 53 83 0,0 7,2 20,6
03.01.2018 6,0 0,9 8,3 1001,3 994,4 1012,3 61 48 77 0,4 4,0 20,1
04.01.2018 6,8 5,3 9,3 1001,5 999,2 1005,4 68 53 86 1,0 5,6 12,9
05.01.2018 7,6 2,7 11,1 1003,5 999,1 1004,9 76 64 89 1,1 3,3 9,7
06.01.2018 5,0 1,8 9,7 1008,5 1004,8 1010,9 88 78 90 0,0 2,4 7,4
07.01.2018 6,3 3,7 8,9 1019,3 1010,9 1021,6 89 87 90 0,1 0,8 3,2
08.01.2018 5,4 4,5 6,5 1022,8 1021,2 1024,0 90 89 90 0,4 2,2 7,9
09.01.2018 6,3 4,5 9,5 1018,4 1016,6 1023,8 87 78 91 0,0 4,4 18,0
10.01.2018 4,6 3,7 6,3 1011,4 1010,2 1016,0 90 86 90 5,8 3,7 10,6
11.01.2018 5,2 3,4 9,3 1013,9 1011,0 1016,3 88 76 91 0,0 5,2 8,7
12.01.2018 4,1 2,7 6,0 1021,2 1016,4 1023,4 87 82 90 1,4 7,0 12,7
13.01.2018 0,9 0,6 2,7 1022,9 1022,4 1023,6 91 90 91 1,0 2,5 8,7
14.01.2018 -0,4 -1,4 1,2 1022,7 1021,1 1023,4 88 85 91 0,0 3,9 9,8
15.01.2018 -1,8 -2,7 1,5 1016,8 1011,3 1023,1 83 76 87 0,0 10,9 16,6
16.01.2018 1,7 -2,1 4,8 999,8 997,2 1010,8 87 76 90 0,3 4,2 19,3
17.01.2018 1,8 -0,4 4,5 1000,4 994,5 1005,5 74 65 89 1,9 8,0 19,6
18.01.2018 3,7 0,9 6,3 1003,5 999,5 1009,5 72 56 84 1,1 2,8 17,2
19.01.2018 2,2 -1,3 8,4 1007,8 1001,6 1011,1 72 58 90 0,0 4,7 15,8
20.01.2018 2,7 -2,0 8,5 1005,5 998,9 1011,5 72 52 88 0,1 5,0 17,2
21.01.2018 0,9 -0,3 3,3 1008,9 997,6 1014,8 82 73 88 0,5 5,7 17,7
22.01.2018 0,7 -3,1 4,7 1011,1 1009,4 1015,1 81 64 89 0,0 2,9 15,0
23.01.2018 3,4 0,2 5,8 1022,3 1011,0 1025,2 88 79 90 3,0 2,8 8,4
24.01.2018 4,7 -0,5 8,8 1023,0 1019,4 1025,8 80 70 90 0,1 4,8 17,4
25.01.2018 -0,9 -2,1 6,5 1017,6 1015,4 1020,9 89 68 90 0,0 1,3 17,9
26.01.2018 1,4 -1,5 2,6 1018,3 1014,9 1021,0 90 89 90 0,0 0,5 5,1
27.01.2018 2,2 0,9 3,6 1028,3 1020,8 1030,6 89 87 90 0,1 1,5 6,4
28.01.2018 6,6 -1,2 13,3 1027,8 1026,9 1030,4 69 41 91 0,0 4,7 21,1
29.01.2018 10,8 6,3 20,0 1021,6 1018,4 1027,1 62 42 70 0,0 4,0 16,1
30.01.2018 6,2 0,4 10,9 1023,9 1018,8 1025,3 73 60 85 0,1 7,9 21,6
31.01.2018 3,8 -0,8 10,5 1012,2 1005,4 1022,6 78 62 90 0,0 2,3 14,2
avg. 3,8 1014,0 80   ---
  Summe Regen: 18,5  
 
Min-Datum 22.01.2018 03.01.2018 28.01.2018 --- ---
Min-Zeit 05:26 12:40 14:48 --- ---
Minimum -3,1 994,4 41 --- ---
 

Max-Datum

29.01.2018 27.01.2018 09.01.2018 10.01.2018 30.01.2018
Max-Zeit 13:26 23:20 00:54 03:28 02:44
Maximum 20,0 1030,6 91 5,8 21,6
 

 

  Letztes Jahr
gleiches Monat
Eistage max < 0°C 0 15
Frosttage min < 0°C 14 30
Sommertage max >=25°C 0 0
Heiße Tage max >=30°C 0 0

 

<<< nach oben >>>